sensor_id;sensor_type;location;lat;lon;timestamp;P1;durP1;ratioP1;P2;durP2;ratioP2
59410;SDS011;45215;32.610;-115.482;2022-08-14T00:00:11;15.07;;;6.75;;
59410;SDS011;45215;32.610;-115.482;2022-08-14T00:02:40;12.88;;;6.88;;
59410;SDS011;45215;32.610;-115.482;2022-08-14T00:05:08;17.63;;;7.30;;
59410;SDS011;45215;32.610;-115.482;2022-08-14T00:07:36;14.85;;;7.18;;
59410;SDS011;45215;32.610;-115.482;2022-08-14T00:10:03;9.85;;;6.97;;
59410;SDS011;45215;32.610;-115.482;2022-08-14T00:12:33;11.25;;;6.65;;
59410;SDS011;45215;32.610;-115.482;2022-08-14T00:15:02;8.30;;;6.07;;
59410;SDS011;45215;32.610;-115.482;2022-08-14T00:17:35;12.18;;;6.05;;
59410;SDS011;45215;32.610;-115.482;2022-08-14T00:20:01;13.30;;;5.68;;
59410;SDS011;45215;32.610;-115.482;2022-08-14T00:22:28;8.23;;;4.80;;
59410;SDS011;45215;32.610;-115.482;2022-08-14T00:24:54;11.63;;;5.05;;
59410;SDS011;45215;32.610;-115.482;2022-08-14T00:27:21;13.48;;;5.53;;
59410;SDS011;45215;32.610;-115.482;2022-08-14T00:29:47;8.48;;;4.63;;
59410;SDS011;45215;32.610;-115.482;2022-08-14T00:32:13;7.75;;;5.38;;
59410;SDS011;45215;32.610;-115.482;2022-08-14T00:34:39;7.35;;;4.88;;
59410;SDS011;45215;32.610;-115.482;2022-08-14T00:37:05;6.82;;;4.55;;
59410;SDS011;45215;32.610;-115.482;2022-08-14T00:39:31;5.13;;;4.50;;
59410;SDS011;45215;32.610;-115.482;2022-08-14T00:41:58;5.55;;;4.05;;
59410;SDS011;45215;32.610;-115.482;2022-08-14T00:44:24;6.72;;;4.03;;
59410;SDS011;45215;32.610;-115.482;2022-08-14T00:46:51;5.10;;;4.15;;
59410;SDS011;45215;32.610;-115.482;2022-08-14T00:49:17;5.47;;;4.10;;
59410;SDS011;45215;32.610;-115.482;2022-08-14T00:51:44;5.72;;;4.05;;
59410;SDS011;45215;32.610;-115.482;2022-08-14T00:54:10;3.95;;;3.55;;
59410;SDS011;45215;32.610;-115.482;2022-08-14T00:56:38;7.30;;;3.78;;
59410;SDS011;45215;32.610;-115.482;2022-08-14T00:59:04;3.95;;;3.55;;
59410;SDS011;45215;32.610;-115.482;2022-08-14T01:01:30;4.80;;;3.55;;
59410;SDS011;45215;32.610;-115.482;2022-08-14T01:04:00;4.55;;;3.30;;
59410;SDS011;45215;32.610;-115.482;2022-08-14T01:06:27;4.28;;;3.17;;
59410;SDS011;45215;32.610;-115.482;2022-08-14T01:08:56;5.22;;;3.55;;
59410;SDS011;45215;32.610;-115.482;2022-08-14T01:11:24;3.55;;;3.20;;
59410;SDS011;45215;32.610;-115.482;2022-08-14T01:13:51;4.68;;;3.10;;
59410;SDS011;45215;32.610;-115.482;2022-08-14T01:16:18;6.70;;;3.65;;
59410;SDS011;45215;32.610;-115.482;2022-08-14T01:18:45;4.60;;;3.10;;
59410;SDS011;45215;32.610;-115.482;2022-08-14T01:23:57;8.25;;;2.95;;
59410;SDS011;45215;32.610;-115.482;2022-08-14T01:26:24;4.90;;;2.72;;
59410;SDS011;45215;32.610;-115.482;2022-08-14T01:28:53;4.50;;;2.80;;
59410;SDS011;45215;32.610;-115.482;2022-08-14T01:31:24;4.53;;;2.88;;
59410;SDS011;45215;32.610;-115.482;2022-08-14T01:33:53;2.83;;;2.63;;
59410;SDS011;45215;32.610;-115.482;2022-08-14T01:36:22;4.35;;;2.67;;
59410;SDS011;45215;32.610;-115.482;2022-08-14T01:38:54;2.95;;;2.42;;
59410;SDS011;45215;32.610;-115.482;2022-08-14T01:41:25;3.85;;;2.72;;
59410;SDS011;45215;32.610;-115.482;2022-08-14T01:43:53;3.78;;;2.60;;
59410;SDS011;45215;32.610;-115.482;2022-08-14T01:46:27;3.65;;;2.38;;
59410;SDS011;45215;32.610;-115.482;2022-08-14T01:48:55;3.55;;;2.30;;
59410;SDS011;45215;32.610;-115.482;2022-08-14T01:51:22;232.15;;;12.18;;
59410;SDS011;45215;32.610;-115.482;2022-08-14T01:53:51;4.65;;;2.45;;
59410;SDS011;45215;32.610;-115.482;2022-08-14T01:56:28;9.15;;;2.45;;
59410;SDS011;45215;32.610;-115.482;2022-08-14T02:01:47;3.60;;;2.20;;
59410;SDS011;45215;32.610;-115.482;2022-08-14T02:04:20;21.67;;;2.60;;
59410;SDS011;45215;32.610;-115.482;2022-08-14T02:06:48;7.80;;;2.10;;
59410;SDS011;45215;32.610;-115.482;2022-08-14T02:09:15;5.45;;;2.28;;
59410;SDS011;45215;32.610;-115.482;2022-08-14T02:11:43;4.43;;;2.05;;
59410;SDS011;45215;32.610;-115.482;2022-08-14T02:14:10;24.67;;;2.78;;
59410;SDS011;45215;32.610;-115.482;2022-08-14T02:16:39;8.52;;;2.28;;
59410;SDS011;45215;32.610;-115.482;2022-08-14T02:19:09;9.55;;;2.30;;
59410;SDS011;45215;32.610;-115.482;2022-08-14T02:21:39;6.03;;;2.10;;
59410;SDS011;45215;32.610;-115.482;2022-08-14T02:24:08;3.45;;;1.95;;
59410;SDS011;45215;32.610;-115.482;2022-08-14T02:26:35;6.43;;;2.38;;
59410;SDS011;45215;32.610;-115.482;2022-08-14T02:29:05;7.88;;;1.90;;
59410;SDS011;45215;32.610;-115.482;2022-08-14T02:31:34;4.55;;;1.83;;
59410;SDS011;45215;32.610;-115.482;2022-08-14T02:34:06;4.35;;;2.15;;
59410;SDS011;45215;32.610;-115.482;2022-08-14T02:37:04;3.03;;;1.80;;
59410;SDS011;45215;32.610;-115.482;2022-08-14T02:39:37;5.97;;;2.28;;
59410;SDS011;45215;32.610;-115.482;2022-08-14T02:42:06;3.65;;;1.95;;
59410;SDS011;45215;32.610;-115.482;2022-08-14T02:44:34;2.22;;;1.75;;
59410;SDS011;45215;32.610;-115.482;2022-08-14T02:47:00;2.92;;;1.88;;
59410;SDS011;45215;32.610;-115.482;2022-08-14T02:49:27;2.50;;;2.00;;
59410;SDS011;45215;32.610;-115.482;2022-08-14T02:51:56;2.88;;;2.08;;
59410;SDS011;45215;32.610;-115.482;2022-08-14T02:54:23;3.50;;;2.13;;
59410;SDS011;45215;32.610;-115.482;2022-08-14T02:56:51;3.13;;;1.90;;
59410;SDS011;45215;32.610;-115.482;2022-08-14T02:59:19;4.28;;;2.20;;
59410;SDS011;45215;32.610;-115.482;2022-08-14T03:01:48;3.03;;;2.08;;
59410;SDS011;45215;32.610;-115.482;2022-08-14T03:04:15;2.78;;;1.90;;
59410;SDS011;45215;32.610;-115.482;2022-08-14T03:06:41;3.10;;;2.08;;
59410;SDS011;45215;32.610;-115.482;2022-08-14T03:09:09;3.60;;;2.03;;
59410;SDS011;45215;32.610;-115.482;2022-08-14T03:11:36;2.50;;;1.88;;
59410;SDS011;45215;32.610;-115.482;2022-08-14T03:14:04;4.43;;;2.15;;
59410;SDS011;45215;32.610;-115.482;2022-08-14T03:16:30;2.63;;;1.90;;
59410;SDS011;45215;32.610;-115.482;2022-08-14T03:19:00;2.70;;;1.75;;
59410;SDS011;45215;32.610;-115.482;2022-08-14T03:21:30;2.40;;;1.90;;
59410;SDS011;45215;32.610;-115.482;2022-08-14T03:23:58;2.42;;;1.88;;
59410;SDS011;45215;32.610;-115.482;2022-08-14T03:26:34;2.08;;;1.77;;
59410;SDS011;45215;32.610;-115.482;2022-08-14T03:29:01;2.63;;;1.92;;
59410;SDS011;45215;32.610;-115.482;2022-08-14T03:31:28;2.53;;;1.80;;
59410;SDS011;45215;32.610;-115.482;2022-08-14T03:33:54;2.88;;;1.88;;
59410;SDS011;45215;32.610;-115.482;2022-08-14T03:36:21;3.03;;;1.92;;
59410;SDS011;45215;32.610;-115.482;2022-08-14T03:38:48;2.10;;;1.50;;
59410;SDS011;45215;32.610;-115.482;2022-08-14T03:41:22;2.10;;;1.60;;
59410;SDS011;45215;32.610;-115.482;2022-08-14T03:43:53;2.00;;;1.80;;
59410;SDS011;45215;32.610;-115.482;2022-08-14T03:46:24;2.63;;;1.77;;
59410;SDS011;45215;32.610;-115.482;2022-08-14T03:48:52;4.80;;;1.90;;
59410;SDS011;45215;32.610;-115.482;2022-08-14T03:51:20;2.55;;;1.63;;
59410;SDS011;45215;32.610;-115.482;2022-08-14T03:53:56;2.22;;;1.60;;
59410;SDS011;45215;32.610;-115.482;2022-08-14T03:56:23;2.85;;;1.55;;
59410;SDS011;45215;32.610;-115.482;2022-08-14T03:58:52;3.15;;;1.70;;
59410;SDS011;45215;32.610;-115.482;2022-08-14T04:01:20;4.20;;;1.73;;
59410;SDS011;45215;32.610;-115.482;2022-08-14T04:03:50;3.30;;;1.75;;
59410;SDS011;45215;32.610;-115.482;2022-08-14T04:06:18;3.05;;;1.70;;
59410;SDS011;45215;32.610;-115.482;2022-08-14T04:08:46;4.13;;;1.90;;
59410;SDS011;45215;32.610;-115.482;2022-08-14T04:11:14;3.90;;;2.00;;
59410;SDS011;45215;32.610;-115.482;2022-08-14T04:13:42;3.03;;;1.63;;
59410;SDS011;45215;32.610;-115.482;2022-08-14T04:16:09;3.13;;;1.80;;
59410;SDS011;45215;32.610;-115.482;2022-08-14T04:18:39;3.17;;;1.80;;
59410;SDS011;45215;32.610;-115.482;2022-08-14T04:21:07;2.97;;;1.55;;
59410;SDS011;45215;32.610;-115.482;2022-08-14T04:23:34;3.58;;;2.03;;
59410;SDS011;45215;32.610;-115.482;2022-08-14T04:26:04;2.83;;;1.77;;
59410;SDS011;45215;32.610;-115.482;2022-08-14T04:28:33;2.42;;;1.70;;
59410;SDS011;45215;32.610;-115.482;2022-08-14T04:31:01;4.32;;;1.83;;
59410;SDS011;45215;32.610;-115.482;2022-08-14T04:33:27;3.67;;;2.00;;
59410;SDS011;45215;32.610;-115.482;2022-08-14T04:35:54;4.45;;;1.83;;
59410;SDS011;45215;32.610;-115.482;2022-08-14T04:38:21;4.05;;;2.05;;
59410;SDS011;45215;32.610;-115.482;2022-08-14T04:41:06;4.45;;;2.00;;
59410;SDS011;45215;32.610;-115.482;2022-08-14T04:43:51;10.85;;;2.25;;
59410;SDS011;45215;32.610;-115.482;2022-08-14T04:46:18;5.53;;;1.90;;
59410;SDS011;45215;32.610;-115.482;2022-08-14T04:48:46;5.72;;;1.67;;
59410;SDS011;45215;32.610;-115.482;2022-08-14T04:51:14;4.88;;;2.00;;
59410;SDS011;45215;32.610;-115.482;2022-08-14T04:53:42;4.53;;;1.95;;
59410;SDS011;45215;32.610;-115.482;2022-08-14T04:56:10;4.43;;;1.90;;
59410;SDS011;45215;32.610;-115.482;2022-08-14T04:58:40;4.72;;;2.00;;
59410;SDS011;45215;32.610;-115.482;2022-08-14T05:01:12;5.68;;;2.08;;
59410;SDS011;45215;32.610;-115.482;2022-08-14T05:03:39;3.28;;;1.95;;
59410;SDS011;45215;32.610;-115.482;2022-08-14T05:06:06;4.82;;;2.28;;
59410;SDS011;45215;32.610;-115.482;2022-08-14T05:08:35;4.20;;;2.10;;
59410;SDS011;45215;32.610;-115.482;2022-08-14T05:11:03;5.28;;;2.10;;
59410;SDS011;45215;32.610;-115.482;2022-08-14T05:13:31;5.05;;;1.83;;
59410;SDS011;45215;32.610;-115.482;2022-08-14T05:15:59;4.45;;;1.90;;
59410;SDS011;45215;32.610;-115.482;2022-08-14T05:18:27;3.20;;;1.80;;
59410;SDS011;45215;32.610;-115.482;2022-08-14T05:21:00;4.35;;;1.98;;
59410;SDS011;45215;32.610;-115.482;2022-08-14T05:23:29;6.45;;;2.10;;
59410;SDS011;45215;32.610;-115.482;2022-08-14T05:25:57;5.85;;;2.22;;
59410;SDS011;45215;32.610;-115.482;2022-08-14T05:28:31;4.40;;;2.30;;
59410;SDS011;45215;32.610;-115.482;2022-08-14T05:31:00;8.10;;;2.45;;
59410;SDS011;45215;32.610;-115.482;2022-08-14T05:33:29;4.97;;;2.33;;
59410;SDS011;45215;32.610;-115.482;2022-08-14T05:35:58;4.18;;;2.08;;
59410;SDS011;45215;32.610;-115.482;2022-08-14T05:38:26;5.20;;;2.15;;
59410;SDS011;45215;32.610;-115.482;2022-08-14T05:43:28;3.67;;;2.13;;
59410;SDS011;45215;32.610;-115.482;2022-08-14T05:45:55;3.40;;;2.58;;
59410;SDS011;45215;32.610;-115.482;2022-08-14T05:48:22;4.30;;;2.20;;
59410;SDS011;45215;32.610;-115.482;2022-08-14T05:50:50;5.30;;;2.45;;
59410;SDS011;45215;32.610;-115.482;2022-08-14T05:53:19;3.38;;;2.13;;
59410;SDS011;45215;32.610;-115.482;2022-08-14T05:55:46;3.42;;;2.10;;
59410;SDS011;45215;32.610;-115.482;2022-08-14T05:58:13;6.05;;;2.47;;
59410;SDS011;45215;32.610;-115.482;2022-08-14T06:00:41;5.82;;;2.58;;
59410;SDS011;45215;32.610;-115.482;2022-08-14T06:03:09;5.03;;;2.42;;
59410;SDS011;45215;32.610;-115.482;2022-08-14T06:05:39;5.50;;;2.15;;
59410;SDS011;45215;32.610;-115.482;2022-08-14T06:08:16;4.88;;;2.20;;
59410;SDS011;45215;32.610;-115.482;2022-08-14T06:10:50;5.35;;;2.17;;
59410;SDS011;45215;32.610;-115.482;2022-08-14T06:13:18;2.88;;;2.00;;
59410;SDS011;45215;32.610;-115.482;2022-08-14T06:15:45;3.22;;;1.98;;
59410;SDS011;45215;32.610;-115.482;2022-08-14T06:18:13;4.78;;;2.25;;
59410;SDS011;45215;32.610;-115.482;2022-08-14T06:20:40;5.03;;;2.47;;
59410;SDS011;45215;32.610;-115.482;2022-08-14T06:23:06;6.13;;;2.00;;
59410;SDS011;45215;32.610;-115.482;2022-08-14T06:25:33;2.95;;;1.92;;
59410;SDS011;45215;32.610;-115.482;2022-08-14T06:27:59;4.85;;;1.98;;
59410;SDS011;45215;32.610;-115.482;2022-08-14T06:30:27;4.00;;;2.17;;
59410;SDS011;45215;32.610;-115.482;2022-08-14T06:32:54;5.25;;;2.15;;
59410;SDS011;45215;32.610;-115.482;2022-08-14T06:35:21;3.47;;;2.20;;
59410;SDS011;45215;32.610;-115.482;2022-08-14T06:40:22;3.20;;;1.92;;
59410;SDS011;45215;32.610;-115.482;2022-08-14T06:42:56;4.68;;;2.30;;
59410;SDS011;45215;32.610;-115.482;2022-08-14T06:45:23;4.13;;;2.30;;
59410;SDS011;45215;32.610;-115.482;2022-08-14T06:47:50;4.57;;;1.90;;
59410;SDS011;45215;32.610;-115.482;2022-08-14T06:50:18;5.88;;;2.15;;
59410;SDS011;45215;32.610;-115.482;2022-08-14T06:52:45;2.97;;;1.98;;
59410;SDS011;45215;32.610;-115.482;2022-08-14T06:55:13;2.83;;;1.75;;
59410;SDS011;45215;32.610;-115.482;2022-08-14T06:57:45;2.40;;;2.07;;
59410;SDS011;45215;32.610;-115.482;2022-08-14T07:00:18;2.45;;;1.80;;
59410;SDS011;45215;32.610;-115.482;2022-08-14T07:02:51;3.83;;;1.70;;
59410;SDS011;45215;32.610;-115.482;2022-08-14T07:05:36;3.42;;;1.90;;
59410;SDS011;45215;32.610;-115.482;2022-08-14T07:08:16;3.40;;;1.80;;
59410;SDS011;45215;32.610;-115.482;2022-08-14T07:10:54;3.20;;;1.80;;
59410;SDS011;45215;32.610;-115.482;2022-08-14T07:13:22;3.65;;;1.77;;
59410;SDS011;45215;32.610;-115.482;2022-08-14T07:15:52;2.63;;;1.77;;
59410;SDS011;45215;32.610;-115.482;2022-08-14T07:18:23;2.85;;;1.80;;
59410;SDS011;45215;32.610;-115.482;2022-08-14T07:20:51;3.28;;;1.85;;
59410;SDS011;45215;32.610;-115.482;2022-08-14T07:23:19;2.10;;;1.70;;
59410;SDS011;45215;32.610;-115.482;2022-08-14T07:25:51;2.72;;;1.85;;
59410;SDS011;45215;32.610;-115.482;2022-08-14T07:28:20;2.45;;;1.70;;
59410;SDS011;45215;32.610;-115.482;2022-08-14T07:30:49;2.47;;;2.00;;
59410;SDS011;45215;32.610;-115.482;2022-08-14T07:33:17;2.53;;;1.90;;
59410;SDS011;45215;32.610;-115.482;2022-08-14T07:35:44;2.88;;;1.80;;
59410;SDS011;45215;32.610;-115.482;2022-08-14T07:38:15;2.78;;;1.95;;
59410;SDS011;45215;32.610;-115.482;2022-08-14T07:40:44;2.78;;;1.90;;
59410;SDS011;45215;32.610;-115.482;2022-08-14T07:43:11;2.35;;;1.70;;
59410;SDS011;45215;32.610;-115.482;2022-08-14T07:45:38;2.15;;;1.90;;
59410;SDS011;45215;32.610;-115.482;2022-08-14T07:48:04;3.42;;;1.90;;
59410;SDS011;45215;32.610;-115.482;2022-08-14T07:50:31;3.42;;;2.08;;
59410;SDS011;45215;32.610;-115.482;2022-08-14T07:52:58;3.22;;;1.70;;
59410;SDS011;45215;32.610;-115.482;2022-08-14T07:55:24;2.97;;;1.98;;
59410;SDS011;45215;32.610;-115.482;2022-08-14T07:57:51;2.53;;;1.60;;
59410;SDS011;45215;32.610;-115.482;2022-08-14T08:00:18;1.98;;;1.70;;
59410;SDS011;45215;32.610;-115.482;2022-08-14T08:02:47;2.92;;;1.80;;
59410;SDS011;45215;32.610;-115.482;2022-08-14T08:05:16;2.95;;;1.88;;
59410;SDS011;45215;32.610;-115.482;2022-08-14T08:07:45;2.25;;;1.80;;
59410;SDS011;45215;32.610;-115.482;2022-08-14T08:10:13;1.98;;;1.60;;
59410;SDS011;45215;32.610;-115.482;2022-08-14T08:12:58;2.80;;;1.83;;
59410;SDS011;45215;32.610;-115.482;2022-08-14T08:15:25;3.42;;;1.50;;
59410;SDS011;45215;32.610;-115.482;2022-08-14T08:17:53;1.98;;;1.70;;
59410;SDS011;45215;32.610;-115.482;2022-08-14T08:20:21;1.60;;;1.50;;
59410;SDS011;45215;32.610;-115.482;2022-08-14T08:22:53;2.22;;;1.70;;
59410;SDS011;45215;32.610;-115.482;2022-08-14T08:25:23;2.33;;;1.70;;
59410;SDS011;45215;32.610;-115.482;2022-08-14T08:28:10;1.75;;;1.60;;
59410;SDS011;45215;32.610;-115.482;2022-08-14T08:30:40;2.10;;;1.40;;
59410;SDS011;45215;32.610;-115.482;2022-08-14T08:33:08;2.03;;;1.58;;
59410;SDS011;45215;32.610;-115.482;2022-08-14T08:35:36;1.50;;;1.30;;
59410;SDS011;45215;32.610;-115.482;2022-08-14T08:38:12;1.60;;;1.48;;
59410;SDS011;45215;32.610;-115.482;2022-08-14T08:40:45;1.40;;;1.30;;
59410;SDS011;45215;32.610;-115.482;2022-08-14T08:43:20;1.45;;;1.33;;
59410;SDS011;45215;32.610;-115.482;2022-08-14T08:48:25;1.73;;;1.60;;
59410;SDS011;45215;32.610;-115.482;2022-08-14T08:51:00;2.10;;;1.45;;
59410;SDS011;45215;32.610;-115.482;2022-08-14T08:53:34;1.60;;;1.30;;
59410;SDS011;45215;32.610;-115.482;2022-08-14T08:56:01;1.70;;;1.30;;
59410;SDS011;45215;32.610;-115.482;2022-08-14T08:58:28;1.52;;;1.27;;
59410;SDS011;45215;32.610;-115.482;2022-08-14T09:00:55;1.20;;;1.10;;
59410;SDS011;45215;32.610;-115.482;2022-08-14T09:03:25;1.73;;;1.30;;
59410;SDS011;45215;32.610;-115.482;2022-08-14T09:05:59;1.45;;;1.20;;
59410;SDS011;45215;32.610;-115.482;2022-08-14T09:08:30;1.75;;;1.20;;
59410;SDS011;45215;32.610;-115.482;2022-08-14T09:10:59;1.63;;;1.33;;
59410;SDS011;45215;32.610;-115.482;2022-08-14T09:13:29;2.15;;;1.40;;
59410;SDS011;45215;32.610;-115.482;2022-08-14T09:15:56;1.30;;;1.17;;
59410;SDS011;45215;32.610;-115.482;2022-08-14T09:18:23;1.88;;;1.35;;
59410;SDS011;45215;32.610;-115.482;2022-08-14T09:20:52;1.95;;;1.30;;
59410;SDS011;45215;32.610;-115.482;2022-08-14T09:23:20;1.60;;;1.08;;
59410;SDS011;45215;32.610;-115.482;2022-08-14T09:25:47;1.40;;;1.30;;
59410;SDS011;45215;32.610;-115.482;2022-08-14T09:28:16;1.10;;;1.00;;
59410;SDS011;45215;32.610;-115.482;2022-08-14T09:30:53;1.50;;;1.40;;
59410;SDS011;45215;32.610;-115.482;2022-08-14T09:33:38;1.00;;;0.90;;
59410;SDS011;45215;32.610;-115.482;2022-08-14T09:36:30;1.65;;;1.23;;
59410;SDS011;45215;32.610;-115.482;2022-08-14T09:45:17;1.75;;;1.10;;
59410;SDS011;45215;32.610;-115.482;2022-08-14T09:47:48;1.90;;;1.15;;
59410;SDS011;45215;32.610;-115.482;2022-08-14T09:50:24;1.30;;;1.20;;
59410;SDS011;45215;32.610;-115.482;2022-08-14T09:53:08;1.50;;;0.95;;
59410;SDS011;45215;32.610;-115.482;2022-08-14T09:55:35;1.13;;;0.90;;
59410;SDS011;45215;32.610;-115.482;2022-08-14T09:58:09;1.70;;;1.20;;
59410;SDS011;45215;32.610;-115.482;2022-08-14T10:00:42;1.00;;;0.90;;
59410;SDS011;45215;32.610;-115.482;2022-08-14T10:03:10;2.50;;;1.20;;
59410;SDS011;45215;32.610;-115.482;2022-08-14T10:05:37;1.25;;;1.15;;
59410;SDS011;45215;32.610;-115.482;2022-08-14T10:08:15;1.92;;;1.27;;
59410;SDS011;45215;32.610;-115.482;2022-08-14T10:10:44;1.20;;;1.10;;
59410;SDS011;45215;32.610;-115.482;2022-08-14T10:13:23;1.17;;;1.00;;
59410;SDS011;45215;32.610;-115.482;2022-08-14T10:15:50;1.75;;;1.50;;
59410;SDS011;45215;32.610;-115.482;2022-08-14T10:18:25;1.20;;;1.10;;
59410;SDS011;45215;32.610;-115.482;2022-08-14T10:20:56;1.27;;;1.15;;
59410;SDS011;45215;32.610;-115.482;2022-08-14T10:23:26;1.60;;;1.30;;
59410;SDS011;45215;32.610;-115.482;2022-08-14T10:25:57;1.65;;;1.20;;
59410;SDS011;45215;32.610;-115.482;2022-08-14T10:28:41;1.05;;;0.95;;
59410;SDS011;45215;32.610;-115.482;2022-08-14T10:31:19;1.23;;;1.13;;
59410;SDS011;45215;32.610;-115.482;2022-08-14T10:34:06;1.10;;;1.00;;
59410;SDS011;45215;32.610;-115.482;2022-08-14T10:36:37;1.20;;;0.95;;
59410;SDS011;45215;32.610;-115.482;2022-08-14T10:39:06;2.25;;;1.00;;
59410;SDS011;45215;32.610;-115.482;2022-08-14T10:41:41;1.58;;;1.10;;
59410;SDS011;45215;32.610;-115.482;2022-08-14T10:44:09;1.58;;;0.90;;
59410;SDS011;45215;32.610;-115.482;2022-08-14T10:46:50;1.27;;;1.10;;
59410;SDS011;45215;32.610;-115.482;2022-08-14T10:49:32;1.58;;;1.00;;
59410;SDS011;45215;32.610;-115.482;2022-08-14T10:52:03;1.67;;;1.23;;
59410;SDS011;45215;32.610;-115.482;2022-08-14T10:54:37;1.45;;;1.35;;
59410;SDS011;45215;32.610;-115.482;2022-08-14T10:57:12;1.30;;;1.08;;
59410;SDS011;45215;32.610;-115.482;2022-08-14T10:59:58;0.90;;;0.90;;
59410;SDS011;45215;32.610;-115.482;2022-08-14T11:02:26;1.20;;;0.95;;
59410;SDS011;45215;32.610;-115.482;2022-08-14T11:04:58;0.90;;;0.80;;
59410;SDS011;45215;32.610;-115.482;2022-08-14T11:07:26;38.00;;;2.42;;
59410;SDS011;45215;32.610;-115.482;2022-08-14T11:09:54;1.10;;;1.00;;
59410;SDS011;45215;32.610;-115.482;2022-08-14T11:12:22;2.05;;;1.27;;
59410;SDS011;45215;32.610;-115.482;2022-08-14T11:14:54;1.73;;;0.80;;
59410;SDS011;45215;32.610;-115.482;2022-08-14T11:17:25;5.05;;;1.17;;
59410;SDS011;45215;32.610;-115.482;2022-08-14T11:19:54;4.75;;;1.20;;
59410;SDS011;45215;32.610;-115.482;2022-08-14T11:22:28;22.23;;;16.85;;
59410;SDS011;45215;32.610;-115.482;2022-08-14T11:25:03;30.38;;;22.00;;
59410;SDS011;45215;32.610;-115.482;2022-08-14T11:27:31;38.97;;;26.48;;
59410;SDS011;45215;32.610;-115.482;2022-08-14T11:30:03;71.05;;;62.08;;
59410;SDS011;45215;32.610;-115.482;2022-08-14T11:32:37;68.85;;;60.92;;
59410;SDS011;45215;32.610;-115.482;2022-08-14T11:35:23;63.72;;;56.45;;
59410;SDS011;45215;32.610;-115.482;2022-08-14T11:37:58;59.80;;;52.97;;
59410;SDS011;45215;32.610;-115.482;2022-08-14T11:40:26;56.60;;;50.35;;
59410;SDS011;45215;32.610;-115.482;2022-08-14T11:42:59;48.72;;;43.40;;
59410;SDS011;45215;32.610;-115.482;2022-08-14T11:45:28;49.63;;;41.08;;
59410;SDS011;45215;32.610;-115.482;2022-08-14T11:47:57;43.03;;;38.35;;
59410;SDS011;45215;32.610;-115.482;2022-08-14T11:50:29;40.67;;;36.17;;
59410;SDS011;45215;32.610;-115.482;2022-08-14T11:55:26;37.45;;;32.50;;
59410;SDS011;45215;32.610;-115.482;2022-08-14T11:58:03;34.08;;;30.38;;
59410;SDS011;45215;32.610;-115.482;2022-08-14T12:03:12;32.05;;;26.52;;
59410;SDS011;45215;32.610;-115.482;2022-08-14T12:05:39;27.10;;;24.15;;
59410;SDS011;45215;32.610;-115.482;2022-08-14T12:08:07;31.95;;;23.73;;
59410;SDS011;45215;32.610;-115.482;2022-08-14T12:10:35;24.33;;;21.63;;
59410;SDS011;45215;32.610;-115.482;2022-08-14T12:13:15;24.88;;;21.38;;
59410;SDS011;45215;32.610;-115.482;2022-08-14T12:15:44;31.77;;;23.08;;
59410;SDS011;45215;32.610;-115.482;2022-08-14T12:18:13;27.98;;;22.75;;
59410;SDS011;45215;32.610;-115.482;2022-08-14T12:20:40;31.85;;;23.10;;
59410;SDS011;45215;32.610;-115.482;2022-08-14T12:23:18;36.20;;;25.05;;
59410;SDS011;45215;32.610;-115.482;2022-08-14T12:25:47;41.67;;;27.38;;
59410;SDS011;45215;32.610;-115.482;2022-08-14T12:28:13;45.08;;;30.15;;
59410;SDS011;45215;32.610;-115.482;2022-08-14T12:30:44;48.33;;;30.08;;
59410;SDS011;45215;32.610;-115.482;2022-08-14T12:33:20;50.70;;;31.85;;
59410;SDS011;45215;32.610;-115.482;2022-08-14T12:35:55;58.08;;;33.63;;
59410;SDS011;45215;32.610;-115.482;2022-08-14T12:38:36;57.47;;;34.65;;
59410;SDS011;45215;32.610;-115.482;2022-08-14T12:41:10;54.05;;;33.58;;
59410;SDS011;45215;32.610;-115.482;2022-08-14T12:43:45;58.20;;;34.83;;
59410;SDS011;45215;32.610;-115.482;2022-08-14T12:46:28;58.75;;;35.35;;
59410;SDS011;45215;32.610;-115.482;2022-08-14T12:48:59;57.47;;;34.25;;
59410;SDS011;45215;32.610;-115.482;2022-08-14T12:53:58;63.00;;;35.85;;
59410;SDS011;45215;32.610;-115.482;2022-08-14T12:56:25;56.60;;;33.83;;
59410;SDS011;45215;32.610;-115.482;2022-08-14T12:58:55;56.00;;;33.08;;
59410;SDS011;45215;32.610;-115.482;2022-08-14T13:01:24;56.00;;;32.90;;
59410;SDS011;45215;32.610;-115.482;2022-08-14T13:04:09;54.38;;;32.17;;
59410;SDS011;45215;32.610;-115.482;2022-08-14T13:06:45;54.13;;;31.20;;
59410;SDS011;45215;32.610;-115.482;2022-08-14T13:09:12;55.53;;;31.67;;
59410;SDS011;45215;32.610;-115.482;2022-08-14T13:11:57;49.00;;;29.58;;
59410;SDS011;45215;32.610;-115.482;2022-08-14T13:14:30;50.35;;;30.38;;
59410;SDS011;45215;32.610;-115.482;2022-08-14T13:16:58;48.88;;;28.75;;
59410;SDS011;45215;32.610;-115.482;2022-08-14T13:19:28;44.92;;;27.88;;
59410;SDS011;45215;32.610;-115.482;2022-08-14T13:21:55;47.70;;;27.83;;
59410;SDS011;45215;32.610;-115.482;2022-08-14T13:24:22;44.00;;;26.45;;
59410;SDS011;45215;32.610;-115.482;2022-08-14T13:26:50;44.65;;;26.52;;
59410;SDS011;45215;32.610;-115.482;2022-08-14T13:29:21;42.08;;;24.95;;
59410;SDS011;45215;32.610;-115.482;2022-08-14T13:31:50;40.83;;;24.98;;
59410;SDS011;45215;32.610;-115.482;2022-08-14T13:34:19;38.90;;;22.67;;
59410;SDS011;45215;32.610;-115.482;2022-08-14T13:36:46;38.30;;;23.27;;
59410;SDS011;45215;32.610;-115.482;2022-08-14T13:39:14;35.90;;;22.30;;
59410;SDS011;45215;32.610;-115.482;2022-08-14T13:41:41;34.80;;;21.33;;
59410;SDS011;45215;32.610;-115.482;2022-08-14T13:44:09;36.17;;;20.90;;
59410;SDS011;45215;32.610;-115.482;2022-08-14T13:46:36;31.60;;;20.08;;
59410;SDS011;45215;32.610;-115.482;2022-08-14T13:49:03;32.08;;;19.33;;
59410;SDS011;45215;32.610;-115.482;2022-08-14T13:51:35;32.33;;;19.67;;
59410;SDS011;45215;32.610;-115.482;2022-08-14T13:54:07;30.77;;;19.02;;
59410;SDS011;45215;32.610;-115.482;2022-08-14T13:56:39;28.75;;;17.88;;
59410;SDS011;45215;32.610;-115.482;2022-08-14T13:59:06;29.52;;;18.00;;
59410;SDS011;45215;32.610;-115.482;2022-08-14T14:01:33;25.67;;;16.92;;
59410;SDS011;45215;32.610;-115.482;2022-08-14T14:04:02;28.08;;;16.90;;
59410;SDS011;45215;32.610;-115.482;2022-08-14T14:06:30;26.23;;;15.95;;
59410;SDS011;45215;32.610;-115.482;2022-08-14T14:08:58;24.08;;;15.63;;
59410;SDS011;45215;32.610;-115.482;2022-08-14T14:11:26;23.80;;;15.68;;
59410;SDS011;45215;32.610;-115.482;2022-08-14T14:13:55;21.85;;;14.50;;
59410;SDS011;45215;32.610;-115.482;2022-08-14T14:16:23;23.58;;;14.52;;
59410;SDS011;45215;32.610;-115.482;2022-08-14T14:18:52;21.08;;;13.55;;
59410;SDS011;45215;32.610;-115.482;2022-08-14T14:21:21;20.30;;;13.40;;
59410;SDS011;45215;32.610;-115.482;2022-08-14T14:23:51;20.58;;;13.43;;
59410;SDS011;45215;32.610;-115.482;2022-08-14T14:26:18;19.42;;;12.52;;
59410;SDS011;45215;32.610;-115.482;2022-08-14T14:28:46;18.75;;;12.27;;
59410;SDS011;45215;32.610;-115.482;2022-08-14T14:31:20;18.38;;;11.82;;
59410;SDS011;45215;32.610;-115.482;2022-08-14T14:33:57;18.25;;;11.52;;
59410;SDS011;45215;32.610;-115.482;2022-08-14T14:36:26;17.55;;;11.35;;
59410;SDS011;45215;32.610;-115.482;2022-08-14T14:38:58;17.55;;;11.52;;
59410;SDS011;45215;32.610;-115.482;2022-08-14T14:41:28;15.48;;;10.75;;
59410;SDS011;45215;32.610;-115.482;2022-08-14T14:43:57;17.40;;;10.27;;
59410;SDS011;45215;32.610;-115.482;2022-08-14T14:46:25;14.95;;;9.88;;